Sunday, November 19, 2017, 9:06 AM EST
Back to Local

KDAW, Skyhaven Airport

Location: Rochester, NH, United States Lat: 43.283
Local Time: 9:06 AM EST (14:06 GMT) Lon: -70.917
Time Zone: US/Eastern Elev: 321 ft

Show me the last for .
Show Decoded

2017-11-19 08:51 METAR KDAW 191351Z AUTO 17006KT 7SM -RA FEW004 OVC010 13/13 A2912 RMK AO2 CIG
                 007V012 SLP859 P0001 T01280128 =
2017-11-19 08:40 METAR KDAW 191340Z AUTO 18005KT 6SM -RA BR SCT003 BKN010 OVC014 12/12 A2912 RMK
                 AO2 CIG 008V012 P0001 T01220122 =
2017-11-19 07:51 METAR KDAW 191251Z AUTO 18005KT 4SM -RA BR OVC003 12/12 A2915 RMK AO2 SLP869
                 P0005 T01170117 =
2017-11-19 06:51 METAR KDAW 191151Z AUTO 16007KT 5SM -RA BR OVC002 12/12 A2916 RMK AO2 SLP872
                 P0001 60012 70031 T01170117 10117 20033 56039 =
2017-11-19 05:51 METAR KDAW 191051Z AUTO 16006KT 4SM -RA BR OVC002 11/11 A2919 RMK AO2 RAE05B32
                 SLP882 P0001 T01110111 =
2017-11-19 05:06 METAR KDAW 191006Z AUTO 15008KT 4SM BR OVC002 10/10 A2923 RMK AO2 RAE05 P0001
                 T01000100 =
2017-11-19 04:51 METAR KDAW 190951Z AUTO 17006KT 2SM -RA BR OVC002 10/10 A2924 RMK AO2 RAB0858
                 SLP898 P0003 T01000100 =
2017-11-19 04:31 METAR KDAW 190931Z AUTO 17005KT 1 1/4SM -RA BR OVC002 09/09 A2926 RMK AO2
                 RAB0858 P0001 T00940094 =
2017-11-19 03:51 METAR KDAW 190851Z AUTO 16004KT 1/2SM FG VV002 08/08 A2928 RMK AO2 RAE11 SLP913
                 P0000 60007 T00830083 56037 =
2017-11-19 02:51 METAR KDAW 190751Z AUTO 00000KT 3/4SM -RA BR VV003 07/07 A2933 RMK AO2 SLP931
                 P0003 T00720072 =
2017-11-19 02:49 METAR KDAW 190749Z AUTO 00000KT 3/4SM -RA BR VV003 07/07 A2933 RMK AO2 P0003 =
2017-11-19 02:40 METAR KDAW 190740Z AUTO 00000KT 1SM -RA BR VV003 07/07 A2934 RMK AO2 P0002
                 T00720072 =
2017-11-19 02:11 METAR KDAW 190711Z AUTO 16003KT 3/4SM -RA BR BKN003 OVC014 07/07 A2937 RMK AO2
                 P0001 T00670067 =
2017-11-19 01:57 METAR KDAW 190657Z AUTO 16003KT 1 3/4SM -RA BR BKN003 BKN014 OVC019 07/07 A2938
                 RMK AO2 P0001 T00670067 =
2017-11-19 01:51 METAR KDAW 190651Z AUTO 17004KT 3SM -RA BR BKN003 OVC019 07/07 A2939 RMK AO2
                 SLP950 P0004 T00720072 =
2017-11-19 01:44 METAR KDAW 190644Z AUTO VRB03KT 3SM -RA BR BKN003 OVC019 07/07 A2939 RMK AO2
                 P0004 T00670067 =
2017-11-19 01:39 METAR KDAW 190639Z AUTO 18003KT 1 3/4SM -RA BR BKN003 OVC019 07/07 A2940 RMK AO2
                 P0004 T00670067 =
2017-11-19 01:04 METAR KDAW 190604Z AUTO VRB03KT 1/2SM RA FG BKN004 OVC050 05/05 A2941 RMK AO2
                 P0002 T00500050 =
2017-11-19 00:51 METAR KDAW 190551Z AUTO 00000KT 1 1/2SM -RA BR OVC003 03/03 A2942 RMK AO2
                 RAE19B41 SLP960 P0000 60019 I6000 T00330033 10039 20011 58045 =
2017-11-19 00:33 METAR KDAW 190533Z AUTO 00000KT 1 1/2SM BR BKN003 OVC009 03/03 A2943 RMK AO2
                 RAE19 P0000 T00330033 =
2017-11-19 00:21 METAR KDAW 190521Z AUTO 31003KT 2 1/2SM BR BKN002 BKN007 OVC011 03/03 A2945 RMK
                 AO2 RAE19 P0000 T00330033 =
2017-11-19 00:02 METAR KDAW 190502Z AUTO 30003KT 3SM -RA BR OVC002 03/03 A2947 RMK AO2 P0000
                 T00330033 =
2017-11-18 23:51 METAR KDAW 190451Z AUTO 33003KT 2 1/2SM -RA BR OVC002 03/03 A2947 RMK AO2
                 RAE0358B39UPB24E28FZRAB0358E24 SLP979 P0003 I1000 T00280028 400441061 =
2017-11-18 23:26 METAR KDAW 190426Z AUTO 31005KT 2SM UP BR OVC003 03/03 A2949 RMK AO2
                 RAE0358UPB24FZRAB0358E24 P0002 I1000 T00280028 =
2017-11-18 23:05 METAR KDAW 190405Z AUTO 32006KT 1 1/2SM -FZRA BR OVC003 02/02 A2949 RMK AO2
                 RAE0358FZRAB0358 P0001 I1000 T00220022 =
2017-11-18 22:58 METAR KDAW 190358Z AUTO 32006KT 2SM -FZRA BR OVC002 02/02 A2950 RMK AO2
                 RAE58FZRAB58 P0001 I1000 T00220022 =
2017-11-18 22:51 METAR KDAW 190351Z AUTO 32004KT 3SM -RA BR OVC002 03/03 A2950 RMK AO2 SLP988
                 P0001 T00280028 =
2017-11-18 21:51 METAR KDAW 190251Z AUTO 31004KT 4SM -RA BR OVC003 02/02 A2955 RMK AO2 SLP007
                 P0007 60015 I1000 I3000 T00220022 58041 =
2017-11-18 21:16 METAR KDAW 190216Z AUTO 32003KT 4SM -RA BR BKN004 BKN008 OVC017 02/02 A2957 RMK
                 AO2 P0004 I1000 T00170017 =
2017-11-18 21:06 METAR KDAW 190206Z AUTO 32004KT 4SM -RA BR SCT004 BKN010 OVC018 02/02 A2958 RMK
                 AO2 CIG 008V011 P0002 T00170017 =
2017-11-18 20:51 METAR KDAW 190151Z AUTO 26005KT 5SM -RA BR BKN005 BKN011 OVC021 02/02 A2960 RMK
                 AO2 SLP024 P0006 T00170017 =
2017-11-18 19:51 METAR KDAW 190051Z AUTO 32005KT 6SM -RA BR BKN008 OVC016 02/01 A2963 RMK AO2
                 RAB07 CIG 006V012 SLP034 P0002 I1000 T00170011 =
2017-11-18 19:43 METAR KDAW 190043Z AUTO 31005KT 6SM -RA BR BKN008 OVC016 02/01 A2964 RMK AO2
                 RAB07 CIG 008V012 P0001 I1000 T00170011 =
2017-11-18 19:05 METAR KDAW 190005Z AUTO 00000KT 10SM SCT023 BKN028 OVC036 03/01 A2966 RMK AO2
                 T00280006 =
2017-11-18 18:51 METAR KDAW 182351Z AUTO 00000KT 10SM SCT030 OVC040 03/M01 A2967 RMK AO2 RAB03E31
                 SLP048 P0000 60000 T00331011 10044 20028 57020 =
2017-11-18 17:51 METAR KDAW 182251Z AUTO 00000KT 10SM FEW027 BKN046 OVC060 03/M02 A2970 RMK AO2
                 RAE27 SLP056 P0000 T00281017 =
2017-11-18 16:51 METAR KDAW 182151Z AUTO 00000KT 10SM -RA BKN070 OVC090 03/M04 A2971 RMK AO2
                 RAB50 SLP061 P0000 T00331039 =
2017-11-18 15:51 METAR KDAW 182051Z AUTO 15003KT 10SM OVC110 04/M05 A2973 RMK AO2 SLP069
                 T00391050 56022 =
2017-11-18 14:51 METAR KDAW 181951Z AUTO 10004KT 10SM CLR 04/M06 A2974 RMK AO2 SLP071 T00391061 =
2017-11-18 13:51 METAR KDAW 181851Z AUTO VRB04KT 10SM BKN110 04/M08 A2979 RMK AO2 SLP086
                 T00441078 =
2017-11-18 12:51 METAR KDAW 181751Z AUTO VRB03KT 10SM CLR 04/M09 A2980 RMK AO2 SLP091 T00441094
                 10044 21050 58038 =
2017-11-18 11:51 METAR KDAW 181651Z AUTO 15004KT 10SM CLR 04/M10 A2983 RMK AO2 SLP103 T00391100 =
2017-11-18 10:51 METAR KDAW 181551Z AUTO 12003KT 10SM CLR 03/M10 A2988 RMK AO2 SLP118 T00331100 =
2017-11-18 09:51 METAR KDAW 181451Z AUTO 00000KT 10SM CLR 02/M10 A2991 RMK AO2 SLP129 T00171100
                 58005 =

Support USWX by starting your Amazon purchase here.